Archival Weather

Aeroparque Jorge Newbery

Buenos Aires, Argentina (SABE)

Report from: Thursday, February 22, 2024 12:00 AM -03
Current time: Tuesday, April 23, 2024 3:58 AM -03

Current weather – Weather history – Daily summaries
Weather forecast

Temperature26.0°C (78.8°F)
Dew point21.0°C (69.8°F)
Winds 12 kts (6.2 m/s, 13.8 mph) East (80°)
Visibility5.6 mi. (9 km)
Altimeter29.77 in.Hg (1008 mB)
Relative humidity74 %
Density altitude1,784 ft. (544 m)
Remarks No significant changes expected in the next two hours
Flight conditions Visual Meteorological Conditions
Raw dataSABE 220300Z 08012KT 9000 NSC 26/21 Q1008 NOSIG
An error has occurred. This application may no longer respond until reloaded. Reload 🗙